Time;durP1;ratioP1;P1;durP2;ratioP2;P2;SDS_P1;SDS_P2;PMS_P1;PMS_P2;Temp;Humidity;BMP_temperature;BMP_pressure;BME280_temperature;BME280_humidity;BME280_pressure;Samples;Min_cycle;Max_cycle;Signal;HPM_P1;HPM_P2
2023/05/02 00:01:24;;;;;;;10.47;9.37;;;;;;;11.48;89.05;98206.03;4171984;28;20649;-83
2023/05/02 00:03:28;;;;;;;10.53;9.43;;;;;;;11.43;89.65;98195.88;4151519;28;20641;-83
2023/05/02 00:05:31;;;;;;;10.07;9.07;;;;;;;11.40;89.61;98197.88;4168890;28;20747;-83
2023/05/02 00:07:34;;;;;;;9.80;8.80;;;;;;;11.36;88.92;98201.66;4166964;28;20724;-83
2023/05/02 00:09:39;;;;;;;10.60;9.50;;;;;;;11.35;89.10;98199.97;4165203;28;20695;-83
2023/05/02 00:11:42;;;;;;;10.47;9.47;;;;;;;11.32;88.81;98205.41;4151273;28;21009;-82
2023/05/02 00:13:45;;;;;;;11.23;9.50;;;;;;;11.33;89.73;98205.28;4158771;28;20653;-83
2023/05/02 00:15:48;;;;;;;9.93;8.70;;;;;;;11.32;88.99;98210.63;4153721;28;20736;-83
2023/05/02 00:17:51;;;;;;;10.00;8.90;;;;;;;11.28;89.46;98214.41;4152161;28;20641;-83
2023/05/02 00:19:54;;;;;;;10.07;9.07;;;;;;;11.26;89.87;98210.22;4168012;28;20647;-83
2023/05/02 00:21:57;;;;;;;10.00;9.00;;;;;;;11.26;89.70;98208.47;4171537;28;20629;-83
2023/05/02 00:24:00;;;;;;;10.83;9.73;;;;;;;11.27;90.39;98209.28;4170692;28;20696;-83
2023/05/02 00:26:08;;;;;;;10.03;9.03;;;;;;;11.27;90.67;98216.19;4165774;28;20650;-83
2023/05/02 00:28:15;;;;;;;10.37;9.20;;;;;;;11.28;89.73;98209.19;4146308;28;20661;-82
2023/05/02 00:30:19;;;;;;;10.70;9.60;;;;;;;11.23;89.51;98211.28;4167066;28;20635;-83
2023/05/02 00:32:23;;;;;;;10.33;9.33;;;;;;;11.19;90.13;98207.22;4168942;28;20681;-82
2023/05/02 00:34:29;;;;;;;10.30;9.30;;;;;;;11.14;88.82;98205.84;4149429;28;20655;-82
2023/05/02 00:36:32;;;;;;;10.20;9.20;;;;;;;11.09;90.44;98198.31;4173134;28;20629;-82
2023/05/02 00:38:35;;;;;;;9.67;8.73;;;;;;;11.06;90.27;98202.94;4163876;28;20732;-82
2023/05/02 00:40:45;;;;;;;10.63;9.20;;;;;;;11.02;89.37;98202.31;4168864;28;20665;-82
2023/05/02 00:42:50;;;;;;;9.90;8.87;;;;;;;11.00;90.67;98204.16;4161266;28;20628;-82
2023/05/02 00:44:54;;;;;;;9.60;8.60;;;;;;;10.99;89.47;98204.28;4163021;28;20702;-82
2023/05/02 00:46:57;;;;;;;11.67;9.90;;;;;;;11.00;90.31;98205.97;4167824;28;20641;-82
2023/05/02 00:49:00;;;;;;;11.20;9.77;;;;;;;10.99;89.41;98199.06;4153659;28;20664;-82
2023/05/02 00:51:05;;;;;;;9.93;8.80;;;;;;;10.97;90.94;98204.38;4182588;28;21108;-82
2023/05/02 00:53:08;;;;;;;9.77;8.87;;;;;;;10.95;90.40;98201.03;4151451;28;20630;-82
2023/05/02 00:55:12;;;;;;;9.73;8.83;;;;;;;10.94;89.65;98207.19;4166147;28;20725;-82
2023/05/02 00:57:15;;;;;;;9.87;8.87;;;;;;;10.94;89.37;98204.59;4182620;28;20660;-82
2023/05/02 00:59:19;;;;;;;9.63;8.73;;;;;;;10.93;91.15;98212.50;4159830;28;20669;-82
2023/05/02 01:01:30;;;;;;;10.17;9.17;;;;;;;10.89;90.35;98206.69;4151019;28;20644;-82
2023/05/02 01:03:39;;;;;;;12.03;8.77;;;;;;;10.88;90.34;98204.19;4174218;28;20633;-82
2023/05/02 01:05:48;;;;;;;13.30;9.70;;;;;;;10.86;89.92;98206.06;4172677;28;20668;-82
2023/05/02 01:08:01;;;;;;;10.03;8.93;;;;;;;10.84;89.97;98208.78;4151726;28;20657;-82
2023/05/02 01:10:14;;;;;;;9.23;8.33;;;;;;;10.81;89.64;98203.75;4163864;28;20749;-82
2023/05/02 01:12:25;;;;;;;10.20;9.10;;;;;;;10.79;90.53;98206.56;4168653;28;20666;-82
2023/05/02 01:14:30;;;;;;;10.03;8.77;;;;;;;10.78;89.46;98210.13;4154335;28;20641;-82
2023/05/02 01:16:35;;;;;;;9.50;8.53;;;;;;;10.77;89.36;98213.69;4168805;28;20620;-82
2023/05/02 01:18:42;;;;;;;8.90;8.03;;;;;;;10.75;90.17;98208.56;4170081;28;20669;-82
2023/05/02 01:20:46;;;;;;;9.60;8.60;;;;;;;10.71;90.25;98207.09;4163112;28;20656;-82
2023/05/02 01:22:49;;;;;;;11.00;9.43;;;;;;;10.70;90.45;98220.22;4177924;28;21084;-82
2023/05/02 01:25:01;;;;;;;9.47;8.40;;;;;;;10.66;89.68;98213.53;4173434;28;21220;-82
2023/05/02 01:27:13;;;;;;;8.60;7.80;;;;;;;10.64;90.29;98221.47;4151792;28;20667;-82
2023/05/02 01:29:18;;;;;;;9.70;8.53;;;;;;;10.62;89.81;98220.75;4169459;28;21228;-82
2023/05/02 01:31:22;;;;;;;9.73;8.73;;;;;;;10.57;90.01;98222.81;4166500;28;20809;-82
2023/05/02 01:33:27;;;;;;;9.50;8.60;;;;;;;10.55;90.34;98224.69;4168142;28;21576;-82
2023/05/02 01:35:30;;;;;;;9.90;8.90;;;;;;;10.54;90.13;98230.00;4170161;28;20676;-82
2023/05/02 01:37:34;;;;;;;9.47;8.43;;;;;;;10.51;89.91;98227.63;4167006;28;20998;-82
2023/05/02 01:39:40;;;;;;;9.03;8.07;;;;;;;10.50;90.31;98231.16;4159118;28;20653;-82
2023/05/02 01:41:43;;;;;;;8.80;7.90;;;;;;;10.50;89.76;98225.94;4167638;28;20641;-82
2023/05/02 01:43:47;;;;;;;12.20;8.43;;;;;;;10.47;89.46;98229.56;4165955;28;20752;-82
2023/05/02 01:45:53;;;;;;;11.10;9.10;;;;;;;10.48;90.36;98225.22;4154376;28;20629;-82
2023/05/02 01:47:56;;;;;;;9.47;8.37;;;;;;;10.45;89.53;98223.63;4167277;28;20640;-82
2023/05/02 01:50:00;;;;;;;9.80;8.80;;;;;;;10.45;90.02;98233.25;4171678;28;20649;-82
2023/05/02 01:52:05;;;;;;;9.40;8.50;;;;;;;10.43;89.95;98232.47;4152026;28;20634;-82
2023/05/02 01:54:09;;;;;;;9.10;8.10;;;;;;;10.42;91.21;98236.03;4156074;28;20657;-82
2023/05/02 01:56:12;;;;;;;9.60;8.60;;;;;;;10.37;90.22;98231.13;4170976;28;20989;-82
2023/05/02 01:58:17;;;;;;;14.67;8.43;;;;;;;10.32;90.73;98240.19;4187046;28;20639;-82
2023/05/02 02:00:22;;;;;;;9.73;8.80;;;;;;;10.29;90.24;98236.94;4155804;28;20629;-82
2023/05/02 02:02:27;;;;;;;10.07;9.00;;;;;;;10.26;89.79;98240.56;4170535;28;20651;-82
2023/05/02 02:04:31;;;;;;;9.00;8.20;;;;;;;10.23;90.05;98235.56;4162527;28;20644;-82
2023/05/02 02:06:35;;;;;;;10.53;8.53;;;;;;;10.23;90.53;98245.16;4171105;28;20618;-82
2023/05/02 02:08:38;;;;;;;9.47;8.57;;;;;;;10.23;90.67;98238.16;4154046;28;20694;-82
2023/05/02 02:10:45;;;;;;;9.43;7.87;;;;;;;10.24;89.62;98237.25;4160680;28;20688;-82
2023/05/02 02:12:52;;;;;;;9.93;8.53;;;;;;;10.22;89.98;98231.25;4156036;28;20637;-82
2023/05/02 02:14:57;;;;;;;10.97;8.90;;;;;;;10.20;89.99;98235.75;4175916;28;20679;-82
2023/05/02 02:17:02;;;;;;;9.70;8.67;;;;;;;10.18;89.82;98239.38;4176639;28;20675;-82
2023/05/02 02:19:10;;;;;;;9.30;8.40;;;;;;;10.15;89.45;98242.19;4151391;28;20632;-82
2023/05/02 02:21:17;;;;;;;10.03;8.83;;;;;;;10.14;90.05;98245.75;4152120;28;21200;-82
2023/05/02 02:23:22;;;;;;;9.80;8.80;;;;;;;10.12;89.99;98245.84;4169842;28;20633;-82
2023/05/02 02:25:25;;;;;;;9.17;8.30;;;;;;;10.12;90.17;98251.06;4157339;28;20740;-82
2023/05/02 02:27:29;;;;;;;9.23;8.33;;;;;;;10.10;90.14;98260.75;4159751;28;21247;-82
2023/05/02 02:29:32;;;;;;;10.37;9.20;;;;;;;10.09;90.18;98259.06;4157907;28;21208;-82
2023/05/02 02:31:37;;;;;;;9.70;8.70;;;;;;;10.09;90.23;98269.50;4157808;28;20629;-82
2023/05/02 02:33:41;;;;;;;9.17;8.17;;;;;;;10.08;90.43;98272.19;4157423;28;20677;-82
2023/05/02 02:35:55;;;;;;;10.10;9.10;;;;;;;10.07;90.53;98273.97;4173061;28;20640;-82
2023/05/02 02:38:05;;;;;;;10.07;8.63;;;;;;;10.00;90.09;98274.44;4154990;28;21212;-82
2023/05/02 02:40:12;;;;;;;10.93;8.27;;;;;;;9.94;89.59;98274.84;4171725;28;20980;-82
2023/05/02 02:42:19;;;;;;;9.00;8.10;;;;;;;9.91;89.65;98275.00;4171251;28;20669;-82
2023/05/02 02:44:27;;;;;;;9.07;8.17;;;;;;;9.88;89.04;98280.41;4180492;28;20628;-82
2023/05/02 02:46:44;;;;;;;8.63;7.73;;;;;;;9.82;89.79;98275.56;4173436;28;20627;-82
2023/05/02 02:48:53;;;;;;;9.13;8.23;;;;;;;9.80;88.78;98281.78;4171509;28;20657;-82
2023/05/02 02:51:08;;;;;;;10.37;8.67;;;;;;;9.78;89.54;98287.09;4171192;28;20695;-82
2023/05/02 02:53:17;;;;;;;8.80;8.00;;;;;;;9.76;89.62;98293.31;4150646;28;21032;-82
2023/05/02 02:55:37;;;;;;;10.23;8.00;;;;;;;9.73;89.33;98293.53;4157547;28;20636;-82
2023/05/02 02:57:46;;;;;;;9.10;8.20;;;;;;;9.73;90.05;98296.16;4173791;28;21288;-82
2023/05/02 02:59:55;;;;;;;8.60;7.70;;;;;;;9.75;90.01;98299.47;4155827;28;20649;-82
2023/05/02 03:02:03;;;;;;;10.77;8.90;;;;;;;9.73;89.76;98307.38;4173062;28;20664;-82
2023/05/02 03:04:08;;;;;;;8.13;7.33;;;;;;;9.71;90.04;98304.06;4178929;28;20727;-82
2023/05/02 03:06:13;;;;;;;9.40;7.80;;;;;;;9.68;89.82;98309.44;4182999;28;20664;-82
2023/05/02 03:08:16;;;;;;;10.13;7.80;;;;;;;9.69;90.32;98315.47;4169034;28;20662;-82
2023/05/02 03:10:22;;;;;;;16.30;9.13;;;;;;;9.65;90.89;98313.97;4168063;28;20664;-82
2023/05/02 03:12:25;;;;;;;10.37;8.50;;;;;;;9.60;91.12;98311.66;4167579;28;20685;-82
2023/05/02 03:14:28;;;;;;;10.43;8.47;;;;;;;9.62;90.56;98317.63;4165656;28;21579;-82
2023/05/02 03:16:34;;;;;;;11.10;9.03;;;;;;;9.62;90.79;98319.38;4175075;28;20636;-82
2023/05/02 03:18:40;;;;;;;8.30;7.50;;;;;;;9.58;90.86;98331.75;4173160;28;20653;-82
2023/05/02 03:20:44;;;;;;;8.20;7.40;;;;;;;9.52;90.56;98319.09;4174143;28;21275;-82
2023/05/02 03:22:48;;;;;;;8.83;7.87;;;;;;;9.48;90.46;98322.00;4154053;28;20757;-82
2023/05/02 03:24:52;;;;;;;9.10;8.20;;;;;;;9.47;90.58;98325.50;4169273;28;20758;-82
2023/05/02 03:26:56;;;;;;;9.83;8.83;;;;;;;9.47;90.68;98322.91;4157096;28;20647;-82
2023/05/02 03:29:02;;;;;;;9.60;7.90;;;;;;;9.43;90.75;98324.88;4166882;28;20667;-82
2023/05/02 03:31:10;;;;;;;9.30;8.30;;;;;;;9.42;90.93;98332.78;4162980;28;20703;-82
2023/05/02 03:33:15;;;;;;;12.07;9.80;;;;;;;9.43;91.14;98340.47;4149792;28;20637;-82
2023/05/02 03:35:20;;;;;;;12.47;10.20;;;;;;;9.44;91.76;98338.72;4157325;28;20672;-82
2023/05/02 03:37:25;;;;;;;12.43;10.10;;;;;;;9.46;92.53;98339.47;4174187;28;20719;-82
2023/05/02 03:39:29;;;;;;;10.43;9.33;;;;;;;9.46;92.53;98336.88;4159040;28;20649;-82
2023/05/02 03:41:33;;;;;;;11.90;9.97;;;;;;;9.49;91.83;98341.91;4155159;28;20656;-82
2023/05/02 03:43:41;;;;;;;14.60;9.40;;;;;;;9.50;92.47;98338.34;4170075;28;20624;-82
2023/05/02 03:45:44;;;;;;;11.70;9.33;;;;;;;9.50;92.55;98344.41;4166509;28;25034;-82
2023/05/02 03:47:51;;;;;;;13.63;9.63;;;;;;;9.52;92.76;98347.75;4164755;28;21195;-82
2023/05/02 03:49:54;;;;;;;11.57;9.17;;;;;;;9.58;92.70;98354.38;4173102;28;20667;-81
2023/05/02 03:51:57;;;;;;;12.47;9.13;;;;;;;9.60;92.50;98355.91;4172426;28;20751;-82
2023/05/02 03:54:06;;;;;;;11.57;10.40;;;;;;;9.62;93.42;98355.84;4187318;28;20634;-82
2023/05/02 03:56:11;;;;;;;11.10;9.90;;;;;;;9.66;92.26;98355.56;4165842;28;20656;-82
2023/05/02 03:58:24;;;;;;;10.80;9.50;;;;;;;9.66;92.63;98367.75;4165969;28;20653;-82
2023/05/02 04:00:27;;;;;;;19.03;10.60;;;;;;;9.66;92.39;98362.53;4168309;28;21156;-82
2023/05/02 04:02:37;;;;;;;10.73;9.63;;;;;;;9.67;92.72;98367.66;4170437;28;20724;-82
2023/05/02 04:04:43;;;;;;;9.87;8.87;;;;;;;9.69;93.26;98372.78;4166210;28;20695;-82
2023/05/02 04:06:50;;;;;;;10.27;9.10;;;;;;;9.72;92.43;98378.63;4168846;28;20648;-82
2023/05/02 04:08:53;;;;;;;10.40;9.33;;;;;;;9.72;92.91;98377.78;4149726;28;20637;-82
2023/05/02 04:10:56;;;;;;;9.50;8.60;;;;;;;9.72;92.31;98372.59;4156206;28;20736;-82
2023/05/02 04:13:02;;;;;;;9.70;8.80;;;;;;;9.72;92.80;98383.00;4170896;28;21160;-82
2023/05/02 04:15:06;;;;;;;11.43;9.83;;;;;;;9.74;93.08;98378.53;4159796;28;20641;-82
2023/05/02 04:17:09;;;;;;;9.73;8.83;;;;;;;9.74;92.93;98379.38;4153585;28;21212;-82
2023/05/02 04:19:20;;;;;;;9.67;8.67;;;;;;;9.74;93.63;98386.34;4167140;28;21242;-82
2023/05/02 04:21:24;;;;;;;9.77;8.77;;;;;;;9.73;92.91;98385.50;4153376;28;20640;-82
2023/05/02 04:23:27;;;;;;;9.53;8.53;;;;;;;9.74;93.20;98391.56;4154776;28;21103;-82
2023/05/02 04:25:34;;;;;;;9.53;8.53;;;;;;;9.73;93.10;98392.50;4154757;28;20634;-82
2023/05/02 04:27:39;;;;;;;9.90;8.90;;;;;;;9.75;93.70;98403.66;4170305;28;20746;-82
2023/05/02 04:29:49;;;;;;;11.90;9.27;;;;;;;9.73;93.20;98397.72;4165225;28;24699;-82
2023/05/02 04:31:54;;;;;;;10.60;9.13;;;;;;;9.73;93.29;98395.94;4152861;28;20664;-82
2023/05/02 04:34:00;;;;;;;9.67;8.70;;;;;;;9.74;93.04;98402.81;4168045;28;20625;-82
2023/05/02 04:36:09;;;;;;;9.60;8.60;;;;;;;9.75;93.82;98399.28;4165996;28;20633;-82
2023/05/02 04:38:16;;;;;;;9.77;8.77;;;;;;;9.77;93.27;98404.38;4149728;28;21294;-86
2023/05/02 04:40:20;;;;;;;12.73;8.60;;;;;;;9.76;93.19;98406.16;4151697;28;20708;-86
2023/05/02 04:42:28;;;;;;;13.13;9.60;;;;;;;9.76;93.08;98406.16;4173353;28;21239;-86
2023/05/02 04:44:43;;;;;;;11.50;10.17;;;;;;;9.75;93.24;98404.47;4154244;28;20736;-86
2023/05/02 04:46:48;;;;;;;10.70;9.60;;;;;;;9.78;93.09;98408.69;4150642;28;20641;-85
2023/05/02 04:48:51;;;;;;;10.40;9.20;;;;;;;9.80;92.92;98418.06;4171813;28;20628;-84
2023/05/02 04:50:55;;;;;;;12.00;9.80;;;;;;;9.82;92.57;98420.56;4170468;28;20636;-85
2023/05/02 04:52:58;;;;;;;11.67;9.90;;;;;;;9.82;92.63;98413.63;4155443;28;20650;-85
2023/05/02 04:55:02;;;;;;;10.97;9.57;;;;;;;9.84;93.06;98413.53;4165968;28;20672;-85
2023/05/02 04:57:06;;;;;;;10.40;9.07;;;;;;;9.83;93.11;98414.44;4153369;28;20728;-85
2023/05/02 04:59:12;;;;;;;13.70;10.80;;;;;;;9.86;93.61;98413.34;4166091;28;21187;-85
2023/05/02 05:01:15;;;;;;;13.20;10.47;;;;;;;9.90;93.70;98414.81;4172198;28;20643;-85
2023/05/02 05:03:23;;;;;;;13.83;10.97;;;;;;;10.01;94.33;98428.06;4172043;28;21166;-85
2023/05/02 05:05:27;;;;;;;12.70;11.30;;;;;;;10.10;94.59;98422.31;4158414;28;20748;-85
2023/05/02 05:07:30;;;;;;;12.93;10.00;;;;;;;10.16;94.72;98427.13;4150125;28;20653;-85
2023/05/02 05:09:34;;;;;;;12.53;9.97;;;;;;;10.21;94.16;98430.31;4168646;28;20629;-84
2023/05/02 05:11:38;;;;;;;12.80;10.53;;;;;;;10.28;93.97;98430.75;4168750;28;20649;-84
2023/05/02 05:13:43;;;;;;;13.13;10.57;;;;;;;10.28;93.90;98438.56;4149189;28;20774;-84
2023/05/02 05:15:48;;;;;;;11.43;10.27;;;;;;;10.34;93.95;98444.22;4145689;28;22017;-84
2023/05/02 05:17:53;;;;;;;13.87;10.10;;;;;;;10.39;94.50;98444.81;4160346;28;20644;-84
2023/05/02 05:19:57;;;;;;;12.50;11.07;;;;;;;10.45;94.92;98450.47;4171786;28;20632;-84
2023/05/02 05:22:02;;;;;;;10.93;9.83;;;;;;;10.52;94.91;98456.97;4144750;28;20731;-84
2023/05/02 05:24:07;;;;;;;11.97;10.73;;;;;;;10.53;94.03;98465.66;4148713;28;20618;-84
2023/05/02 05:26:10;;;;;;;13.17;11.70;;;;;;;10.52;94.30;98471.78;4154039;28;21125;-84
2023/05/02 05:28:17;;;;;;;12.47;10.60;;;;;;;10.51;93.28;98477.94;4166199;28;20655;-84
2023/05/02 05:30:20;;;;;;;12.33;10.40;;;;;;;10.49;93.96;98482.41;4153570;28;20676;-84
2023/05/02 05:32:24;;;;;;;11.50;10.30;;;;;;;10.49;93.71;98485.00;4168943;28;20727;-84
2023/05/02 05:34:28;;;;;;;12.13;9.97;;;;;;;10.49;93.54;98487.63;4165717;28;20636;-84
2023/05/02 05:36:37;;;;;;;14.13;11.87;;;;;;;10.50;93.70;98486.69;4147693;28;20745;-84
2023/05/02 05:38:40;;;;;;;12.70;10.70;;;;;;;10.52;94.30;98503.06;4172368;28;20638;-84
2023/05/02 05:40:45;;;;;;;11.60;10.40;;;;;;;10.54;93.90;98503.81;4162840;28;20628;-84
2023/05/02 05:42:48;;;;;;;12.93;11.07;;;;;;;10.57;93.53;98504.47;4154466;28;21200;-84
2023/05/02 05:44:58;;;;;;;14.83;11.10;;;;;;;10.64;94.58;98507.53;4168006;28;21056;-84
2023/05/02 05:47:02;;;;;;;11.43;10.27;;;;;;;10.66;93.92;98509.13;4165505;28;20656;-84
2023/05/02 05:49:05;;;;;;;11.70;10.60;;;;;;;10.71;94.87;98507.06;4170564;28;21126;-84
2023/05/02 05:51:09;;;;;;;13.97;11.70;;;;;;;10.76;95.73;98504.16;4163315;28;20627;-84
2023/05/02 05:53:14;;;;;;;12.13;10.87;;;;;;;10.82;95.47;98513.31;4155340;28;20654;-84
2023/05/02 05:55:19;;;;;;;12.03;10.83;;;;;;;10.87;94.91;98516.44;4149604;28;21377;-84
2023/05/02 05:57:22;;;;;;;12.90;11.10;;;;;;;10.91;94.72;98517.91;4164761;28;20649;-86
2023/05/02 05:59:26;;;;;;;11.70;10.50;;;;;;;10.89;94.68;98517.19;4158729;28;20645;-86
2023/05/02 06:01:30;;;;;;;16.37;12.10;;;;;;;10.93;96.03;98521.28;4165388;28;20629;-86
2023/05/02 06:03:33;;;;;;;12.50;11.20;;;;;;;11.04;96.05;98526.66;4159349;28;21204;-86
2023/05/02 06:05:37;;;;;;;13.67;12.17;;;;;;;11.12;96.71;98528.78;4154665;28;20669;-86
2023/05/02 06:07:40;;;;;;;14.33;12.10;;;;;;;11.15;95.11;98531.19;4157905;28;20732;-86
2023/05/02 06:09:44;;;;;;;14.57;12.67;;;;;;;11.23;95.47;98532.41;4169110;28;20695;-86
2023/05/02 06:11:48;;;;;;;16.00;13.00;;;;;;;11.31;95.02;98527.53;4150476;28;20656;-86
2023/05/02 06:13:52;;;;;;;16.57;13.23;;;;;;;11.36;97.12;98528.88;4166578;28;20628;-86
2023/05/02 06:16:00;;;;;;;13.10;11.50;;;;;;;11.40;96.51;98526.94;4169432;28;20644;-86
2023/05/02 06:18:05;;;;;;;13.77;12.27;;;;;;;11.46;97.36;98536.97;4165623;28;20656;-86
2023/05/02 06:20:09;;;;;;;13.40;12.00;;;;;;;11.53;97.92;98535.66;4167902;28;20687;-86
2023/05/02 06:22:12;;;;;;;14.50;13.00;;;;;;;11.60;98.33;98544.78;4169443;28;21006;-86
2023/05/02 06:24:15;;;;;;;15.03;13.53;;;;;;;11.69;98.72;98549.41;4157891;28;20635;-86
2023/05/02 06:26:20;;;;;;;13.93;12.50;;;;;;;11.75;97.85;98555.91;4164811;28;20736;-86
2023/05/02 06:28:23;;;;;;;16.33;13.90;;;;;;;11.83;97.27;98553.63;4146402;28;20691;-86
2023/05/02 06:30:27;;;;;;;15.77;14.10;;;;;;;11.90;99.05;98562.72;4141801;28;20653;-86
2023/05/02 06:32:30;;;;;;;15.43;13.83;;;;;;;11.99;97.25;98563.91;4164313;28;20665;-86
2023/05/02 06:34:34;;;;;;;16.00;14.33;;;;;;;12.06;99.55;98557.34;4170985;28;20759;-85
2023/05/02 06:36:37;;;;;;;15.53;13.83;;;;;;;12.13;98.37;98567.25;4167184;28;20678;-84
2023/05/02 06:38:40;;;;;;;16.33;14.63;;;;;;;12.21;99.58;98570.22;4163680;28;21455;-85
2023/05/02 06:40:44;;;;;;;17.33;15.63;;;;;;;12.28;99.15;98574.09;4163294;28;21702;-85
2023/05/02 06:42:49;;;;;;;17.23;15.53;;;;;;;12.36;98.47;98577.03;4168848;28;20625;-84
2023/05/02 06:44:52;;;;;;;17.37;14.60;;;;;;;12.44;98.54;98577.34;4145444;28;20719;-84
2023/05/02 06:46:55;;;;;;;16.03;14.33;;;;;;;12.53;98.03;98588.03;4165978;28;20737;-85
2023/05/02 06:48:58;;;;;;;15.37;13.63;;;;;;;12.61;98.20;98588.31;4173794;28;20659;-84
2023/05/02 06:51:03;;;;;;;16.20;13.80;;;;;;;12.67;99.01;98590.53;4172684;28;20629;-84
2023/05/02 06:53:06;;;;;;;15.90;14.40;;;;;;;12.71;97.86;98589.38;4156912;28;20662;-85
2023/05/02 06:55:09;;;;;;;15.43;13.93;;;;;;;12.74;96.83;98599.63;4172866;28;20636;-84
2023/05/02 06:57:12;;;;;;;15.07;13.47;;;;;;;12.80;98.01;98607.91;4170317;28;20657;-85
2023/05/02 06:59:17;;;;;;;15.60;14.00;;;;;;;12.88;97.11;98607.41;4173024;28;20743;-85
2023/05/02 07:01:20;;;;;;;15.97;14.37;;;;;;;12.94;97.09;98607.81;4165496;28;21115;-85
2023/05/02 07:03:23;;;;;;;16.90;15.10;;;;;;;13.00;96.96;98604.75;4170091;28;21232;-85
2023/05/02 07:05:27;;;;;;;15.93;14.33;;;;;;;13.03;97.66;98604.56;4169524;28;21107;-84
2023/05/02 07:07:30;;;;;;;17.67;15.87;;;;;;;13.08;96.61;98601.59;4168814;28;20646;-84
2023/05/02 07:09:33;;;;;;;15.33;13.77;;;;;;;13.14;95.99;98609.03;4159663;28;21217;-84
2023/05/02 07:11:37;;;;;;;21.70;16.83;;;;;;;13.18;95.73;98607.88;4173417;28;20738;-84
2023/05/02 07:13:40;;;;;;;16.33;14.77;;;;;;;13.19;96.63;98611.22;4156608;28;20651;-84
2023/05/02 07:15:44;;;;;;;15.70;14.10;;;;;;;13.25;96.00;98617.84;4167993;28;20644;-84
2023/05/02 07:17:48;;;;;;;15.93;14.20;;;;;;;13.29;95.59;98614.03;4157130;28;21216;-84
2023/05/02 07:19:51;;;;;;;15.23;13.63;;;;;;;13.34;96.17;98614.56;4154159;28;20638;-84
2023/05/02 07:21:54;;;;;;;16.33;14.67;;;;;;;13.36;95.66;98626.59;4170301;28;20650;-84
2023/05/02 07:23:58;;;;;;;16.80;15.10;;;;;;;13.38;97.10;98621.25;4156632;28;20679;-84
2023/05/02 07:26:01;;;;;;;16.27;14.40;;;;;;;13.42;96.44;98626.16;4170182;28;20692;-84
2023/05/02 07:28:07;;;;;;;16.90;14.00;;;;;;;13.46;95.29;98630.25;4171258;28;20644;-84
2023/05/02 07:30:12;;;;;;;16.53;14.67;;;;;;;13.49;94.76;98634.44;4166044;28;21061;-86
2023/05/02 07:32:16;;;;;;;16.57;14.73;;;;;;;13.52;95.08;98623.75;4172016;28;20627;-86
2023/05/02 07:34:19;;;;;;;16.07;14.47;;;;;;;13.56;95.14;98633.03;4163663;28;21396;-87
2023/05/02 07:36:22;;;;;;;16.77;15.07;;;;;;;13.57;94.83;98632.09;4169632;28;20729;-87
2023/05/02 07:38:27;;;;;;;15.87;14.33;;;;;;;13.60;94.33;98635.31;4160458;28;20639;-86
2023/05/02 07:40:30;;;;;;;16.17;14.60;;;;;;;13.65;94.12;98634.06;4167479;28;20673;-86
2023/05/02 07:42:33;;;;;;;16.57;14.87;;;;;;;13.66;93.92;98638.34;4166508;28;21268;-84
2023/05/02 07:44:36;;;;;;;16.80;15.10;;;;;;;13.69;93.71;98632.88;4168531;28;20627;-84
2023/05/02 07:46:39;;;;;;;16.37;14.67;;;;;;;13.71;93.50;98631.00;4168343;28;21051;-86
2023/05/02 07:48:44;;;;;;;18.07;15.23;;;;;;;13.77;93.55;98641.03;4174518;28;21226;-84
2023/05/02 07:50:47;;;;;;;17.30;15.50;;;;;;;13.82;94.38;98643.34;4185870;28;20640;-84
2023/05/02 07:52:50;;;;;;;16.57;14.80;;;;;;;13.83;93.58;98637.13;4167156;28;20661;-85
2023/05/02 07:54:54;;;;;;;16.47;14.83;;;;;;;13.85;93.86;98654.44;4170271;28;20634;-84
2023/05/02 07:57:00;;;;;;;22.13;15.40;;;;;;;13.87;92.90;98647.28;4165996;28;21287;-83
2023/05/02 07:59:04;;;;;;;18.80;15.73;;;;;;;13.90;92.62;98647.06;4167824;28;20660;-83
2023/05/02 08:01:07;;;;;;;17.50;15.60;;;;;;;13.99;92.66;98653.44;4169069;28;20717;-84
2023/05/02 08:03:10;;;;;;;17.47;15.77;;;;;;;14.09;92.45;98657.06;4163582;28;20689;-84
2023/05/02 08:05:15;;;;;;;16.80;14.73;;;;;;;14.17;92.68;98658.19;4170948;28;20726;-84
2023/05/02 08:07:18;;;;;;;18.00;16.17;;;;;;;14.21;92.21;98657.84;4170589;28;21193;-84
2023/05/02 08:09:22;;;;;;;17.27;15.43;;;;;;;14.27;92.74;98662.66;4168835;28;20637;-87
2023/05/02 08:11:25;;;;;;;18.77;16.97;;;;;;;14.33;92.37;98656.97;4155585;28;20624;-84
2023/05/02 08:13:28;;;;;;;17.73;15.83;;;;;;;14.40;91.87;98660.81;4181988;28;21245;-85
2023/05/02 08:15:31;;;;;;;16.47;14.87;;;;;;;14.41;90.70;98661.63;4159117;28;21334;-85
2023/05/02 08:17:34;;;;;;;17.80;15.93;;;;;;;14.44;90.84;98664.88;4170891;28;20999;-85
2023/05/02 08:19:37;;;;;;;17.17;15.37;;;;;;;14.51;89.75;98670.47;4170829;28;20643;-85
2023/05/02 08:21:42;;;;;;;19.17;15.70;;;;;;;14.57;89.53;98670.03;4170612;28;20654;-85
2023/05/02 08:23:45;;;;;;;18.90;16.90;;;;;;;14.65;89.08;98673.75;4157025;28;20652;-85
2023/05/02 08:25:48;;;;;;;18.37;16.23;;;;;;;14.73;89.04;98676.63;4152721;28;20641;-85
2023/05/02 08:27:51;;;;;;;48.47;27.57;;;;;;;14.80;88.62;98677.84;4153789;28;20706;-85
2023/05/02 08:29:54;;;;;;;19.97;17.57;;;;;;;14.85;89.81;98681.78;4164510;28;21093;-85
2023/05/02 08:32:00;;;;;;;20.87;18.17;;;;;;;14.92;88.79;98674.31;4168329;28;20644;-85
2023/05/02 08:34:03;;;;;;;20.43;18.33;;;;;;;14.94;88.78;98670.59;4156613;28;20857;-85
2023/05/02 08:36:13;;;;;;;20.10;17.97;;;;;;;15.03;89.04;98684.81;4168189;28;20627;-85
2023/05/02 08:38:17;;;;;;;20.37;18.20;;;;;;;15.10;89.26;98679.81;4155094;28;20686;-85
2023/05/02 08:40:22;;;;;;;21.03;18.77;;;;;;;15.17;88.81;98686.31;4170227;28;21028;-85
2023/05/02 08:42:43;;;;;;;20.00;17.40;;;;;;;15.24;88.77;98695.38;4153105;28;20633;-85
2023/05/02 08:44:47;;;;;;;37.70;23.93;;;;;;;15.33;88.31;98699.91;4156887;28;20643;-85
2023/05/02 08:46:51;;;;;;;21.67;19.37;;;;;;;15.26;84.33;98692.63;4155140;28;20751;-85
2023/05/02 08:48:54;;;;;;;24.77;19.97;;;;;;;15.25;85.26;98690.97;4157194;28;20648;-85
2023/05/02 08:50:57;;;;;;;21.93;19.60;;;;;;;15.35;87.51;98703.28;4151111;28;20629;-85
2023/05/02 08:53:00;;;;;;;27.40;20.10;;;;;;;15.41;88.17;98699.31;4152263;28;20640;-85
2023/05/02 08:55:07;;;;;;;20.43;18.43;;;;;;;15.39;87.39;98702.06;4168200;28;20700;-85
2023/05/02 08:57:10;;;;;;;21.73;19.40;;;;;;;15.50;89.33;98695.97;4153535;28;20715;-85
2023/05/02 08:59:13;;;;;;;23.20;20.27;;;;;;;15.75;87.85;98702.66;4149925;28;20644;-85
2023/05/02 09:01:20;;;;;;;22.07;19.63;;;;;;;15.95;86.50;98706.34;4167285;28;20637;-85
2023/05/02 09:03:29;;;;;;;23.70;21.10;;;;;;;16.16;85.04;98702.81;4169156;28;21038;-85
2023/05/02 09:05:34;;;;;;;25.50;22.33;;;;;;;16.26;86.34;98706.41;4167644;28;20675;-85
2023/05/02 09:07:44;;;;;;;33.57;29.20;;;;;;;16.36;86.29;98709.97;4169556;28;20661;-85
2023/05/02 09:09:47;;;;;;;21.27;19.03;;;;;;;16.51;84.96;98699.03;4168934;28;21220;-85
2023/05/02 09:11:52;;;;;;;23.83;19.80;;;;;;;16.57;84.53;98703.78;4168058;28;20691;-85
2023/05/02 09:13:57;;;;;;;28.60;22.87;;;;;;;16.61;84.93;98700.78;4168745;28;20633;-85
2023/05/02 09:16:02;;;;;;;21.57;19.40;;;;;;;16.76;84.14;98704.75;4169992;28;20654;-85
2023/05/02 09:18:06;;;;;;;21.73;19.43;;;;;;;16.89;82.71;98708.03;4172173;28;20642;-85
2023/05/02 09:20:11;;;;;;;29.50;23.00;;;;;;;17.06;85.19;98703.03;4172090;28;20629;-85
2023/05/02 09:22:22;;;;;;;23.10;20.80;;;;;;;17.03;83.39;98705.06;4170489;28;20638;-85
2023/05/02 09:24:25;;;;;;;22.37;19.90;;;;;;;17.00;82.56;98695.66;4171453;28;20644;-85
2023/05/02 09:26:31;;;;;;;23.67;21.20;;;;;;;16.90;81.69;98691.28;4172664;28;20641;-85
2023/05/02 09:28:40;;;;;;;23.20;20.80;;;;;;;16.93;83.42;98698.91;4169610;28;20646;-86
2023/05/02 09:30:44;;;;;;;23.73;21.43;;;;;;;17.04;82.53;98704.13;4171841;28;20633;-85
2023/05/02 09:32:49;;;;;;;22.20;20.00;;;;;;;17.21;82.28;98708.81;4172110;28;20625;-85
2023/05/02 09:35:05;;;;;;;22.47;20.27;;;;;;;17.30;81.61;98715.97;4157018;28;20670;-85
2023/05/02 09:37:11;;;;;;;21.97;19.47;;;;;;;17.37;80.83;98709.22;4167464;28;21289;-85
2023/05/02 09:39:16;;;;;;;24.57;22.23;;;;;;;17.48;80.90;98710.78;4183867;28;20637;-84
2023/05/02 09:41:20;;;;;;;22.30;19.73;;;;;;;17.61;82.05;98710.56;4164982;28;20741;-84